sensor_id;sensor_type;location;lat;lon;timestamp;temperature;humidity
3944;DHT22;1986;52.546;13.428;2023-05-10T00:00:21;12.60;97.50
3944;DHT22;1986;52.546;13.428;2023-05-10T00:02:49;12.50;97.60
3944;DHT22;1986;52.546;13.428;2023-05-10T00:05:18;12.50;98.00
3944;DHT22;1986;52.546;13.428;2023-05-10T00:07:45;12.40;98.30
3944;DHT22;1986;52.546;13.428;2023-05-10T00:10:12;12.40;98.40
3944;DHT22;1986;52.546;13.428;2023-05-10T00:12:42;12.40;98.70
3944;DHT22;1986;52.546;13.428;2023-05-10T00:15:09;12.30;99.10
3944;DHT22;1986;52.546;13.428;2023-05-10T00:17:38;12.20;99.10
3944;DHT22;1986;52.546;13.428;2023-05-10T00:20:06;12.20;99.30
3944;DHT22;1986;52.546;13.428;2023-05-10T00:22:33;12.20;99.60
3944;DHT22;1986;52.546;13.428;2023-05-10T00:25:00;12.20;99.80
3944;DHT22;1986;52.546;13.428;2023-05-10T00:27:26;12.10;99.90
3944;DHT22;1986;52.546;13.428;2023-05-10T00:29:54;12.00;99.90
3944;DHT22;1986;52.546;13.428;2023-05-10T00:32:21;12.00;99.90
3944;DHT22;1986;52.546;13.428;2023-05-10T00:34:52;12.00;99.90
3944;DHT22;1986;52.546;13.428;2023-05-10T00:37:19;11.90;99.90
3944;DHT22;1986;52.546;13.428;2023-05-10T00:39:46;11.90;99.90
3944;DHT22;1986;52.546;13.428;2023-05-10T00:42:15;11.90;99.90
3944;DHT22;1986;52.546;13.428;2023-05-10T00:44:42;11.80;99.90
3944;DHT22;1986;52.546;13.428;2023-05-10T00:47:10;11.80;99.90
3944;DHT22;1986;52.546;13.428;2023-05-10T00:49:37;11.80;99.90
3944;DHT22;1986;52.546;13.428;2023-05-10T00:52:05;11.80;99.90
3944;DHT22;1986;52.546;13.428;2023-05-10T00:54:33;11.70;99.90
3944;DHT22;1986;52.546;13.428;2023-05-10T00:57:00;11.70;99.90
3944;DHT22;1986;52.546;13.428;2023-05-10T00:59:29;11.70;99.90
3944;DHT22;1986;52.546;13.428;2023-05-10T01:01:57;11.60;99.90
3944;DHT22;1986;52.546;13.428;2023-05-10T01:04:25;11.60;99.90
3944;DHT22;1986;52.546;13.428;2023-05-10T01:06:52;11.60;99.90
3944;DHT22;1986;52.546;13.428;2023-05-10T01:09:21;11.50;99.90
3944;DHT22;1986;52.546;13.428;2023-05-10T01:11:49;11.50;99.90
3944;DHT22;1986;52.546;13.428;2023-05-10T01:14:18;11.50;99.90
3944;DHT22;1986;52.546;13.428;2023-05-10T01:16:47;11.40;99.90
3944;DHT22;1986;52.546;13.428;2023-05-10T01:19:19;11.40;99.90
3944;DHT22;1986;52.546;13.428;2023-05-10T01:21:54;11.40;99.90
3944;DHT22;1986;52.546;13.428;2023-05-10T01:25:00;11.30;99.90
3944;DHT22;1986;52.546;13.428;2023-05-10T01:27:53;11.30;99.90
3944;DHT22;1986;52.546;13.428;2023-05-10T01:30:50;11.20;99.90
3944;DHT22;1986;52.546;13.428;2023-05-10T01:33:26;11.20;99.90
3944;DHT22;1986;52.546;13.428;2023-05-10T01:36:00;11.20;99.90
3944;DHT22;1986;52.546;13.428;2023-05-10T01:38:32;11.20;99.90
3944;DHT22;1986;52.546;13.428;2023-05-10T01:41:13;11.20;99.90
3944;DHT22;1986;52.546;13.428;2023-05-10T01:43:48;11.20;99.90
3944;DHT22;1986;52.546;13.428;2023-05-10T01:46:24;11.10;99.90
3944;DHT22;1986;52.546;13.428;2023-05-10T01:48:56;11.10;99.90
3944;DHT22;1986;52.546;13.428;2023-05-10T01:51:27;11.00;99.90
3944;DHT22;1986;52.546;13.428;2023-05-10T01:54:01;11.00;99.90
3944;DHT22;1986;52.546;13.428;2023-05-10T01:56:30;11.00;99.90
3944;DHT22;1986;52.546;13.428;2023-05-10T01:59:00;11.00;99.90
3944;DHT22;1986;52.546;13.428;2023-05-10T02:01:32;10.90;99.90
3944;DHT22;1986;52.546;13.428;2023-05-10T02:04:02;10.90;99.90
3944;DHT22;1986;52.546;13.428;2023-05-10T02:06:30;10.80;99.90
3944;DHT22;1986;52.546;13.428;2023-05-10T02:08:58;10.80;99.90
3944;DHT22;1986;52.546;13.428;2023-05-10T02:11:27;10.80;99.90
3944;DHT22;1986;52.546;13.428;2023-05-10T02:13:55;10.80;99.90
3944;DHT22;1986;52.546;13.428;2023-05-10T02:16:25;10.70;99.90
3944;DHT22;1986;52.546;13.428;2023-05-10T02:18:53;10.70;99.90
3944;DHT22;1986;52.546;13.428;2023-05-10T02:21:23;10.70;99.90
3944;DHT22;1986;52.546;13.428;2023-05-10T02:23:54;10.70;99.90
3944;DHT22;1986;52.546;13.428;2023-05-10T02:26:23;10.60;99.90
3944;DHT22;1986;52.546;13.428;2023-05-10T02:28:50;10.60;99.90
3944;DHT22;1986;52.546;13.428;2023-05-10T02:31:19;10.60;99.90
3944;DHT22;1986;52.546;13.428;2023-05-10T02:33:46;10.60;99.90
3944;DHT22;1986;52.546;13.428;2023-05-10T02:36:15;10.50;99.90
3944;DHT22;1986;52.546;13.428;2023-05-10T02:38:45;10.50;99.90
3944;DHT22;1986;52.546;13.428;2023-05-10T02:41:14;10.50;99.90
3944;DHT22;1986;52.546;13.428;2023-05-10T02:43:42;10.50;99.90
3944;DHT22;1986;52.546;13.428;2023-05-10T02:46:09;10.50;99.90
3944;DHT22;1986;52.546;13.428;2023-05-10T02:48:36;10.40;99.90
3944;DHT22;1986;52.546;13.428;2023-05-10T02:51:06;10.40;99.90
3944;DHT22;1986;52.546;13.428;2023-05-10T02:53:37;10.40;99.90
3944;DHT22;1986;52.546;13.428;2023-05-10T02:56:12;10.40;99.90
3944;DHT22;1986;52.546;13.428;2023-05-10T02:58:43;10.40;99.90
3944;DHT22;1986;52.546;13.428;2023-05-10T03:01:10;10.30;99.90
3944;DHT22;1986;52.546;13.428;2023-05-10T03:03:36;10.30;99.90
3944;DHT22;1986;52.546;13.428;2023-05-10T03:06:04;10.30;99.90
3944;DHT22;1986;52.546;13.428;2023-05-10T03:08:31;10.30;99.90
3944;DHT22;1986;52.546;13.428;2023-05-10T03:11:13;10.30;99.90
3944;DHT22;1986;52.546;13.428;2023-05-10T03:13:52;10.30;99.90
3944;DHT22;1986;52.546;13.428;2023-05-10T03:16:26;10.30;99.90
3944;DHT22;1986;52.546;13.428;2023-05-10T03:18:56;10.30;99.90
3944;DHT22;1986;52.546;13.428;2023-05-10T03:21:26;10.20;99.90
3944;DHT22;1986;52.546;13.428;2023-05-10T03:23:59;10.20;99.90
3944;DHT22;1986;52.546;13.428;2023-05-10T03:26:31;10.20;99.90
3944;DHT22;1986;52.546;13.428;2023-05-10T03:28:58;10.20;99.90
3944;DHT22;1986;52.546;13.428;2023-05-10T03:31:26;10.10;99.90
3944;DHT22;1986;52.546;13.428;2023-05-10T03:33:53;10.10;99.90
3944;DHT22;1986;52.546;13.428;2023-05-10T03:36:20;10.10;99.90
3944;DHT22;1986;52.546;13.428;2023-05-10T03:38:47;10.10;99.90
3944;DHT22;1986;52.546;13.428;2023-05-10T03:41:14;10.10;99.90
3944;DHT22;1986;52.546;13.428;2023-05-10T03:43:45;10.10;99.90
3944;DHT22;1986;52.546;13.428;2023-05-10T03:46:12;10.10;99.90
3944;DHT22;1986;52.546;13.428;2023-05-10T03:48:39;10.10;99.90
3944;DHT22;1986;52.546;13.428;2023-05-10T03:51:06;10.10;99.90
3944;DHT22;1986;52.546;13.428;2023-05-10T03:53:33;10.10;99.90
3944;DHT22;1986;52.546;13.428;2023-05-10T03:56:00;10.10;99.90
3944;DHT22;1986;52.546;13.428;2023-05-10T03:58:28;10.10;99.90
3944;DHT22;1986;52.546;13.428;2023-05-10T04:00:58;10.10;99.90
3944;DHT22;1986;52.546;13.428;2023-05-10T04:03:27;10.10;99.90
3944;DHT22;1986;52.546;13.428;2023-05-10T04:05:59;10.10;99.90
3944;DHT22;1986;52.546;13.428;2023-05-10T04:08:27;10.10;99.90
3944;DHT22;1986;52.546;13.428;2023-05-10T04:11:04;10.20;99.90
3944;DHT22;1986;52.546;13.428;2023-05-10T04:13:32;10.20;99.90
3944;DHT22;1986;52.546;13.428;2023-05-10T04:16:00;10.20;99.90
3944;DHT22;1986;52.546;13.428;2023-05-10T04:18:33;10.20;99.90
3944;DHT22;1986;52.546;13.428;2023-05-10T04:21:00;10.20;99.90
3944;DHT22;1986;52.546;13.428;2023-05-10T04:23:31;10.20;99.90
3944;DHT22;1986;52.546;13.428;2023-05-10T04:26:04;10.30;99.90
3944;DHT22;1986;52.546;13.428;2023-05-10T04:28:31;10.30;99.90
3944;DHT22;1986;52.546;13.428;2023-05-10T04:31:03;10.30;99.90
3944;DHT22;1986;52.546;13.428;2023-05-10T04:33:30;10.30;99.90
3944;DHT22;1986;52.546;13.428;2023-05-10T04:36:01;10.40;99.90
3944;DHT22;1986;52.546;13.428;2023-05-10T04:38:28;10.40;99.90
3944;DHT22;1986;52.546;13.428;2023-05-10T04:41:04;10.50;99.90
3944;DHT22;1986;52.546;13.428;2023-05-10T04:43:32;10.50;99.90
3944;DHT22;1986;52.546;13.428;2023-05-10T04:45:59;10.60;99.90
3944;DHT22;1986;52.546;13.428;2023-05-10T04:48:28;10.80;99.90
3944;DHT22;1986;52.546;13.428;2023-05-10T04:50:55;10.90;99.90
3944;DHT22;1986;52.546;13.428;2023-05-10T04:53:22;11.00;99.90
3944;DHT22;1986;52.546;13.428;2023-05-10T04:55:49;11.10;99.90
3944;DHT22;1986;52.546;13.428;2023-05-10T04:58:16;11.20;99.90
3944;DHT22;1986;52.546;13.428;2023-05-10T05:00:45;11.30;99.90
3944;DHT22;1986;52.546;13.428;2023-05-10T05:03:12;11.40;99.90
3944;DHT22;1986;52.546;13.428;2023-05-10T05:05:41;11.50;99.90
3944;DHT22;1986;52.546;13.428;2023-05-10T05:08:08;11.60;99.90
3944;DHT22;1986;52.546;13.428;2023-05-10T05:10:35;11.50;99.90
3944;DHT22;1986;52.546;13.428;2023-05-10T05:13:02;11.70;99.90
3944;DHT22;1986;52.546;13.428;2023-05-10T05:15:29;11.70;99.90
3944;DHT22;1986;52.546;13.428;2023-05-10T05:17:59;12.00;99.90
3944;DHT22;1986;52.546;13.428;2023-05-10T05:20:28;12.10;99.90
3944;DHT22;1986;52.546;13.428;2023-05-10T05:22:59;12.10;99.90
3944;DHT22;1986;52.546;13.428;2023-05-10T05:25:26;12.20;99.90
3944;DHT22;1986;52.546;13.428;2023-05-10T05:27:53;12.30;99.90
3944;DHT22;1986;52.546;13.428;2023-05-10T05:30:23;12.50;99.90
3944;DHT22;1986;52.546;13.428;2023-05-10T05:32:50;12.60;99.90
3944;DHT22;1986;52.546;13.428;2023-05-10T05:35:22;12.80;99.90
3944;DHT22;1986;52.546;13.428;2023-05-10T05:37:49;13.00;99.90
3944;DHT22;1986;52.546;13.428;2023-05-10T05:40:17;12.90;99.90
3944;DHT22;1986;52.546;13.428;2023-05-10T05:42:46;13.00;99.90
3944;DHT22;1986;52.546;13.428;2023-05-10T05:45:13;13.00;99.90
3944;DHT22;1986;52.546;13.428;2023-05-10T05:47:40;13.00;99.90
3944;DHT22;1986;52.546;13.428;2023-05-10T05:50:08;13.30;99.90
3944;DHT22;1986;52.546;13.428;2023-05-10T05:52:36;13.40;99.90
3944;DHT22;1986;52.546;13.428;2023-05-10T05:55:04;13.80;99.90
3944;DHT22;1986;52.546;13.428;2023-05-10T05:57:34;13.60;99.90
3944;DHT22;1986;52.546;13.428;2023-05-10T06:00:03;13.60;99.90
3944;DHT22;1986;52.546;13.428;2023-05-10T06:02:30;14.10;99.80
3944;DHT22;1986;52.546;13.428;2023-05-10T06:04:58;14.10;99.00
3944;DHT22;1986;52.546;13.428;2023-05-10T06:07:27;14.50;99.40
3944;DHT22;1986;52.546;13.428;2023-05-10T06:09:56;14.60;98.60
3944;DHT22;1986;52.546;13.428;2023-05-10T06:12:29;14.70;98.00
3944;DHT22;1986;52.546;13.428;2023-05-10T06:15:03;15.80;97.00
3944;DHT22;1986;52.546;13.428;2023-05-10T06:17:31;16.20;95.10
3944;DHT22;1986;52.546;13.428;2023-05-10T06:19:58;16.20;93.70
3944;DHT22;1986;52.546;13.428;2023-05-10T06:22:28;15.50;93.50
3944;DHT22;1986;52.546;13.428;2023-05-10T06:24:56;15.60;94.70
3944;DHT22;1986;52.546;13.428;2023-05-10T06:27:23;14.90;95.20
3944;DHT22;1986;52.546;13.428;2023-05-10T06:29:50;15.80;96.10
3944;DHT22;1986;52.546;13.428;2023-05-10T06:32:18;16.30;94.30
3944;DHT22;1986;52.546;13.428;2023-05-10T06:34:47;15.40;94.40
3944;DHT22;1986;52.546;13.428;2023-05-10T06:37:15;15.80;94.60
3944;DHT22;1986;52.546;13.428;2023-05-10T06:39:42;15.70;93.60
3944;DHT22;1986;52.546;13.428;2023-05-10T06:42:09;15.10;94.80
3944;DHT22;1986;52.546;13.428;2023-05-10T06:44:36;15.10;94.30
3944;DHT22;1986;52.546;13.428;2023-05-10T06:47:03;15.10;95.20
3944;DHT22;1986;52.546;13.428;2023-05-10T06:49:31;15.10;95.20
3944;DHT22;1986;52.546;13.428;2023-05-10T06:51:58;15.50;95.20
3944;DHT22;1986;52.546;13.428;2023-05-10T06:54:25;15.30;95.10
3944;DHT22;1986;52.546;13.428;2023-05-10T06:56:52;15.80;94.50
3944;DHT22;1986;52.546;13.428;2023-05-10T06:59:19;15.40;94.80
3944;DHT22;1986;52.546;13.428;2023-05-10T07:01:51;15.60;94.00
3944;DHT22;1986;52.546;13.428;2023-05-10T07:04:17;16.20;93.50
3944;DHT22;1986;52.546;13.428;2023-05-10T07:06:46;16.40;93.60
3944;DHT22;1986;52.546;13.428;2023-05-10T07:09:16;16.00;93.40
3944;DHT22;1986;52.546;13.428;2023-05-10T07:11:43;15.70;94.20
3944;DHT22;1986;52.546;13.428;2023-05-10T07:14:10;16.00;93.80
3944;DHT22;1986;52.546;13.428;2023-05-10T07:16:41;15.90;93.80
3944;DHT22;1986;52.546;13.428;2023-05-10T07:19:11;16.50;93.90
3944;DHT22;1986;52.546;13.428;2023-05-10T07:21:38;16.80;92.30
3944;DHT22;1986;52.546;13.428;2023-05-10T07:24:07;16.70;93.10
3944;DHT22;1986;52.546;13.428;2023-05-10T07:26:34;16.50;92.90
3944;DHT22;1986;52.546;13.428;2023-05-10T07:29:04;16.30;92.60
3944;DHT22;1986;52.546;13.428;2023-05-10T07:31:31;16.30;93.00
3944;DHT22;1986;52.546;13.428;2023-05-10T07:34:03;16.70;92.70
3944;DHT22;1986;52.546;13.428;2023-05-10T07:36:30;16.30;92.90
3944;DHT22;1986;52.546;13.428;2023-05-10T07:38:58;16.30;93.60
3944;DHT22;1986;52.546;13.428;2023-05-10T07:41:29;16.80;93.40
3944;DHT22;1986;52.546;13.428;2023-05-10T07:43:59;17.10;93.00
3944;DHT22;1986;52.546;13.428;2023-05-10T07:46:26;17.10;92.40
3944;DHT22;1986;52.546;13.428;2023-05-10T07:48:53;17.40;91.20
3944;DHT22;1986;52.546;13.428;2023-05-10T07:51:26;17.20;91.50
3944;DHT22;1986;52.546;13.428;2023-05-10T07:54:17;17.30;92.10
3944;DHT22;1986;52.546;13.428;2023-05-10T08:03:30;17.10;91.50
3944;DHT22;1986;52.546;13.428;2023-05-10T08:06:23;17.00;91.10
3944;DHT22;1986;52.546;13.428;2023-05-10T08:09:27;17.50;91.70
3944;DHT22;1986;52.546;13.428;2023-05-10T08:11:58;17.30;90.30
3944;DHT22;1986;52.546;13.428;2023-05-10T08:14:26;18.00;90.80
3944;DHT22;1986;52.546;13.428;2023-05-10T08:16:55;18.70;88.30
3944;DHT22;1986;52.546;13.428;2023-05-10T08:19:22;19.70;86.10
3944;DHT22;1986;52.546;13.428;2023-05-10T08:21:49;18.70;84.70
3944;DHT22;1986;52.546;13.428;2023-05-10T08:24:16;18.20;86.10
3944;DHT22;1986;52.546;13.428;2023-05-10T08:26:43;18.10;86.90
3944;DHT22;1986;52.546;13.428;2023-05-10T08:29:10;18.20;87.60
3944;DHT22;1986;52.546;13.428;2023-05-10T08:31:37;18.50;86.20
3944;DHT22;1986;52.546;13.428;2023-05-10T08:34:05;18.20;85.80
3944;DHT22;1986;52.546;13.428;2023-05-10T08:36:32;18.00;88.10
3944;DHT22;1986;52.546;13.428;2023-05-10T08:39:03;17.70;87.10
3944;DHT22;1986;52.546;13.428;2023-05-10T08:41:30;17.90;87.90
3944;DHT22;1986;52.546;13.428;2023-05-10T08:43:59;17.90;88.90
3944;DHT22;1986;52.546;13.428;2023-05-10T08:46:29;17.70;86.80
3944;DHT22;1986;52.546;13.428;2023-05-10T08:49:00;17.70;88.80
3944;DHT22;1986;52.546;13.428;2023-05-10T08:51:33;17.90;88.90
3944;DHT22;1986;52.546;13.428;2023-05-10T08:54:01;17.90;89.20
3944;DHT22;1986;52.546;13.428;2023-05-10T08:56:29;17.70;88.00
3944;DHT22;1986;52.546;13.428;2023-05-10T08:58:56;17.70;88.20
3944;DHT22;1986;52.546;13.428;2023-05-10T09:01:24;18.20;89.20
3944;DHT22;1986;52.546;13.428;2023-05-10T09:03:54;18.00;86.70
3944;DHT22;1986;52.546;13.428;2023-05-10T09:06:21;18.20;86.30
3944;DHT22;1986;52.546;13.428;2023-05-10T09:08:50;18.20;84.20
3944;DHT22;1986;52.546;13.428;2023-05-10T09:11:20;18.50;84.70
3944;DHT22;1986;52.546;13.428;2023-05-10T09:13:48;18.70;85.40
3944;DHT22;1986;52.546;13.428;2023-05-10T09:16:16;18.60;81.90
3944;DHT22;1986;52.546;13.428;2023-05-10T09:18:43;18.60;83.00
3944;DHT22;1986;52.546;13.428;2023-05-10T09:21:12;18.20;83.80
3944;DHT22;1986;52.546;13.428;2023-05-10T09:23:43;18.30;85.30
3944;DHT22;1986;52.546;13.428;2023-05-10T09:26:11;18.40;83.60
3944;DHT22;1986;52.546;13.428;2023-05-10T09:28:51;18.50;82.70
3944;DHT22;1986;52.546;13.428;2023-05-10T09:31:18;18.60;82.80
3944;DHT22;1986;52.546;13.428;2023-05-10T09:33:48;18.90;81.80
3944;DHT22;1986;52.546;13.428;2023-05-10T09:36:15;18.90;81.20
3944;DHT22;1986;52.546;13.428;2023-05-10T09:38:46;19.20;81.80
3944;DHT22;1986;52.546;13.428;2023-05-10T09:41:21;19.10;80.30
3944;DHT22;1986;52.546;13.428;2023-05-10T09:43:48;19.40;81.40
3944;DHT22;1986;52.546;13.428;2023-05-10T09:46:16;19.10;79.00
3944;DHT22;1986;52.546;13.428;2023-05-10T09:48:45;19.40;78.90
3944;DHT22;1986;52.546;13.428;2023-05-10T09:51:21;19.50;77.60
3944;DHT22;1986;52.546;13.428;2023-05-10T09:53:49;19.40;78.50
3944;DHT22;1986;52.546;13.428;2023-05-10T09:56:36;19.70;80.00
3944;DHT22;1986;52.546;13.428;2023-05-10T09:59:06;19.60;76.60
3944;DHT22;1986;52.546;13.428;2023-05-10T10:01:33;19.40;74.70
3944;DHT22;1986;52.546;13.428;2023-05-10T10:04:03;19.00;77.30
3944;DHT22;1986;52.546;13.428;2023-05-10T10:06:35;19.00;78.40
3944;DHT22;1986;52.546;13.428;2023-05-10T10:09:05;19.40;78.90
3944;DHT22;1986;52.546;13.428;2023-05-10T10:11:33;19.80;76.40
3944;DHT22;1986;52.546;13.428;2023-05-10T10:14:02;19.60;75.00
3944;DHT22;1986;52.546;13.428;2023-05-10T10:16:29;19.50;76.50
3944;DHT22;1986;52.546;13.428;2023-05-10T10:18:57;19.30;75.40
3944;DHT22;1986;52.546;13.428;2023-05-10T10:21:24;19.70;75.00
3944;DHT22;1986;52.546;13.428;2023-05-10T10:23:52;19.60;74.40
3944;DHT22;1986;52.546;13.428;2023-05-10T10:26:19;19.90;78.10
3944;DHT22;1986;52.546;13.428;2023-05-10T10:28:54;20.10;75.30
3944;DHT22;1986;52.546;13.428;2023-05-10T10:31:30;20.00;74.40
3944;DHT22;1986;52.546;13.428;2023-05-10T10:34:05;19.80;75.50
3944;DHT22;1986;52.546;13.428;2023-05-10T10:36:40;19.60;74.90
3944;DHT22;1986;52.546;13.428;2023-05-10T10:39:09;19.70;74.60
3944;DHT22;1986;52.546;13.428;2023-05-10T10:41:38;19.90;72.80
3944;DHT22;1986;52.546;13.428;2023-05-10T10:44:30;19.80;73.00
3944;DHT22;1986;52.546;13.428;2023-05-10T10:47:06;19.60;73.70
3944;DHT22;1986;52.546;13.428;2023-05-10T10:49:43;19.70;75.60
3944;DHT22;1986;52.546;13.428;2023-05-10T10:52:20;20.00;74.20
3944;DHT22;1986;52.546;13.428;2023-05-10T10:54:50;20.10;73.90
3944;DHT22;1986;52.546;13.428;2023-05-10T10:57:19;20.20;73.10
3944;DHT22;1986;52.546;13.428;2023-05-10T10:59:49;20.30;71.60
3944;DHT22;1986;52.546;13.428;2023-05-10T11:02:43;20.40;71.20
3944;DHT22;1986;52.546;13.428;2023-05-10T11:05:37;20.20;71.50
3944;DHT22;1986;52.546;13.428;2023-05-10T11:08:11;20.50;72.20
3944;DHT22;1986;52.546;13.428;2023-05-10T11:10:39;20.90;70.70
3944;DHT22;1986;52.546;13.428;2023-05-10T11:13:08;20.70;71.80
3944;DHT22;1986;52.546;13.428;2023-05-10T11:15:37;20.90;71.60
3944;DHT22;1986;52.546;13.428;2023-05-10T11:18:23;20.60;70.00
3944;DHT22;1986;52.546;13.428;2023-05-10T11:20:51;20.60;69.00
3944;DHT22;1986;52.546;13.428;2023-05-10T11:23:18;20.60;68.70
3944;DHT22;1986;52.546;13.428;2023-05-10T11:25:48;20.70;70.90
3944;DHT22;1986;52.546;13.428;2023-05-10T11:28:20;20.90;70.10
3944;DHT22;1986;52.546;13.428;2023-05-10T11:30:48;21.00;69.60
3944;DHT22;1986;52.546;13.428;2023-05-10T11:33:16;21.00;68.10
3944;DHT22;1986;52.546;13.428;2023-05-10T11:35:45;21.10;71.30
3944;DHT22;1986;52.546;13.428;2023-05-10T11:38:13;21.10;70.30
3944;DHT22;1986;52.546;13.428;2023-05-10T11:40:41;21.20;70.90
3944;DHT22;1986;52.546;13.428;2023-05-10T11:43:09;21.30;69.60
3944;DHT22;1986;52.546;13.428;2023-05-10T11:45:36;21.10;67.50
3944;DHT22;1986;52.546;13.428;2023-05-10T11:48:04;21.20;67.60
3944;DHT22;1986;52.546;13.428;2023-05-10T11:50:31;21.40;67.90
3944;DHT22;1986;52.546;13.428;2023-05-10T11:53:02;21.30;67.20
3944;DHT22;1986;52.546;13.428;2023-05-10T11:55:29;21.30;66.80
3944;DHT22;1986;52.546;13.428;2023-05-10T11:58:01;21.30;67.50
3944;DHT22;1986;52.546;13.428;2023-05-10T12:00:29;21.30;68.40
3944;DHT22;1986;52.546;13.428;2023-05-10T12:02:56;21.20;68.10
3944;DHT22;1986;52.546;13.428;2023-05-10T12:05:24;21.30;67.40
3944;DHT22;1986;52.546;13.428;2023-05-10T12:07:51;21.30;67.00
3944;DHT22;1986;52.546;13.428;2023-05-10T12:10:26;21.60;66.50
3944;DHT22;1986;52.546;13.428;2023-05-10T12:12:53;21.70;65.30
3944;DHT22;1986;52.546;13.428;2023-05-10T12:15:21;21.80;63.90
3944;DHT22;1986;52.546;13.428;2023-05-10T12:17:49;21.60;63.80
3944;DHT22;1986;52.546;13.428;2023-05-10T12:20:17;21.30;62.80
3944;DHT22;1986;52.546;13.428;2023-05-10T12:22:49;21.30;62.10
3944;DHT22;1986;52.546;13.428;2023-05-10T12:25:17;21.30;61.90
3944;DHT22;1986;52.546;13.428;2023-05-10T12:27:55;21.50;62.60
3944;DHT22;1986;52.546;13.428;2023-05-10T12:30:23;21.80;62.00
3944;DHT22;1986;52.546;13.428;2023-05-10T12:32:52;21.90;60.80
3944;DHT22;1986;52.546;13.428;2023-05-10T12:35:19;21.70;59.20
3944;DHT22;1986;52.546;13.428;2023-05-10T12:37:49;21.60;59.20
3944;DHT22;1986;52.546;13.428;2023-05-10T12:40:16;21.80;59.70
3944;DHT22;1986;52.546;13.428;2023-05-10T12:42:43;22.10;57.60
3944;DHT22;1986;52.546;13.428;2023-05-10T12:45:12;22.10;58.20
3944;DHT22;1986;52.546;13.428;2023-05-10T12:47:42;21.90;57.60
3944;DHT22;1986;52.546;13.428;2023-05-10T12:50:09;22.00;59.20
3944;DHT22;1986;52.546;13.428;2023-05-10T12:52:36;21.60;58.60
3944;DHT22;1986;52.546;13.428;2023-05-10T12:55:17;21.90;59.40
3944;DHT22;1986;52.546;13.428;2023-05-10T12:57:44;22.00;60.40
3944;DHT22;1986;52.546;13.428;2023-05-10T13:00:17;22.10;59.30
3944;DHT22;1986;52.546;13.428;2023-05-10T13:02:50;22.30;57.50
3944;DHT22;1986;52.546;13.428;2023-05-10T13:05:19;22.40;56.90
3944;DHT22;1986;52.546;13.428;2023-05-10T13:07:46;22.20;53.10
3944;DHT22;1986;52.546;13.428;2023-05-10T13:10:16;22.40;54.70
3944;DHT22;1986;52.546;13.428;2023-05-10T13:12:43;22.30;55.10
3944;DHT22;1986;52.546;13.428;2023-05-10T13:15:10;22.40;55.80
3944;DHT22;1986;52.546;13.428;2023-05-10T13:17:39;22.40;54.20
3944;DHT22;1986;52.546;13.428;2023-05-10T13:20:11;22.30;55.90
3944;DHT22;1986;52.546;13.428;2023-05-10T13:22:38;22.40;56.70
3944;DHT22;1986;52.546;13.428;2023-05-10T13:25:11;22.40;56.30
3944;DHT22;1986;52.546;13.428;2023-05-10T13:27:39;22.50;55.10
3944;DHT22;1986;52.546;13.428;2023-05-10T13:30:07;22.50;53.20
3944;DHT22;1986;52.546;13.428;2023-05-10T13:32:35;22.60;53.10
3944;DHT22;1986;52.546;13.428;2023-05-10T13:35:04;22.50;51.90
3944;DHT22;1986;52.546;13.428;2023-05-10T13:37:32;22.60;53.20
3944;DHT22;1986;52.546;13.428;2023-05-10T13:40:01;22.70;52.40
3944;DHT22;1986;52.546;13.428;2023-05-10T13:42:28;22.50;52.70
3944;DHT22;1986;52.546;13.428;2023-05-10T13:44:58;22.60;53.70
3944;DHT22;1986;52.546;13.428;2023-05-10T13:47:25;22.40;52.60
3944;DHT22;1986;52.546;13.428;2023-05-10T13:49:55;22.60;53.10
3944;DHT22;1986;52.546;13.428;2023-05-10T13:52:24;22.20;53.10
3944;DHT22;1986;52.546;13.428;2023-05-10T13:54:55;22.10;53.40
3944;DHT22;1986;52.546;13.428;2023-05-10T13:57:22;22.00;51.00
3944;DHT22;1986;52.546;13.428;2023-05-10T13:59:51;21.90;51.90
3944;DHT22;1986;52.546;13.428;2023-05-10T14:02:19;22.00;52.00
3944;DHT22;1986;52.546;13.428;2023-05-10T14:04:46;22.20;52.80
3944;DHT22;1986;52.546;13.428;2023-05-10T14:07:13;22.40;53.10
3944;DHT22;1986;52.546;13.428;2023-05-10T14:09:45;22.60;52.80
3944;DHT22;1986;52.546;13.428;2023-05-10T14:12:12;22.90;52.40
3944;DHT22;1986;52.546;13.428;2023-05-10T14:14:49;22.80;50.80
3944;DHT22;1986;52.546;13.428;2023-05-10T14:17:16;22.80;51.70
3944;DHT22;1986;52.546;13.428;2023-05-10T14:19:52;22.80;50.30
3944;DHT22;1986;52.546;13.428;2023-05-10T14:22:19;22.80;49.60
3944;DHT22;1986;52.546;13.428;2023-05-10T14:24:59;22.70;51.00
3944;DHT22;1986;52.546;13.428;2023-05-10T14:27:29;22.70;50.10
3944;DHT22;1986;52.546;13.428;2023-05-10T14:29:56;22.70;49.80
3944;DHT22;1986;52.546;13.428;2023-05-10T14:32:23;22.70;50.60
3944;DHT22;1986;52.546;13.428;2023-05-10T14:34:52;22.70;49.10
3944;DHT22;1986;52.546;13.428;2023-05-10T14:37:19;22.70;50.00
3944;DHT22;1986;52.546;13.428;2023-05-10T14:39:46;22.50;48.70
3944;DHT22;1986;52.546;13.428;2023-05-10T14:42:15;22.50;49.00
3944;DHT22;1986;52.546;13.428;2023-05-10T14:44:42;22.60;48.30
3944;DHT22;1986;52.546;13.428;2023-05-10T14:47:09;22.70;47.90
3944;DHT22;1986;52.546;13.428;2023-05-10T14:49:37;22.70;46.70
3944;DHT22;1986;52.546;13.428;2023-05-10T14:52:05;22.70;47.10
3944;DHT22;1986;52.546;13.428;2023-05-10T14:54:34;22.70;45.90
3944;DHT22;1986;52.546;13.428;2023-05-10T14:57:01;22.60;46.50
3944;DHT22;1986;52.546;13.428;2023-05-10T14:59:31;22.50;46.80
3944;DHT22;1986;52.546;13.428;2023-05-10T15:02:04;22.60;47.20
3944;DHT22;1986;52.546;13.428;2023-05-10T15:04:31;22.60;47.40
3944;DHT22;1986;52.546;13.428;2023-05-10T15:07:00;22.50;48.60
3944;DHT22;1986;52.546;13.428;2023-05-10T15:09:30;22.50;48.10
3944;DHT22;1986;52.546;13.428;2023-05-10T15:12:00;22.90;47.40
3944;DHT22;1986;52.546;13.428;2023-05-10T15:14:30;23.10;47.60
3944;DHT22;1986;52.546;13.428;2023-05-10T15:17:11;23.10;47.30
3944;DHT22;1986;52.546;13.428;2023-05-10T15:19:52;23.30;47.40
3944;DHT22;1986;52.546;13.428;2023-05-10T15:22:22;23.40;47.30
3944;DHT22;1986;52.546;13.428;2023-05-10T15:24:50;22.90;46.30
3944;DHT22;1986;52.546;13.428;2023-05-10T15:27:19;22.60;47.40
3944;DHT22;1986;52.546;13.428;2023-05-10T15:29:50;22.70;48.70
3944;DHT22;1986;52.546;13.428;2023-05-10T15:32:19;22.70;48.10
3944;DHT22;1986;52.546;13.428;2023-05-10T15:34:47;22.80;48.10
3944;DHT22;1986;52.546;13.428;2023-05-10T15:37:13;22.90;48.00
3944;DHT22;1986;52.546;13.428;2023-05-10T15:39:41;22.80;46.90
3944;DHT22;1986;52.546;13.428;2023-05-10T15:42:09;22.80;47.10
3944;DHT22;1986;52.546;13.428;2023-05-10T15:44:42;22.80;46.60
3944;DHT22;1986;52.546;13.428;2023-05-10T15:47:12;22.50;47.10
3944;DHT22;1986;52.546;13.428;2023-05-10T15:49:39;22.50;47.30
3944;DHT22;1986;52.546;13.428;2023-05-10T15:52:06;22.30;48.50
3944;DHT22;1986;52.546;13.428;2023-05-10T15:54:33;22.30;49.20
3944;DHT22;1986;52.546;13.428;2023-05-10T15:57:00;22.30;49.50
3944;DHT22;1986;52.546;13.428;2023-05-10T15:59:27;22.20;50.00
3944;DHT22;1986;52.546;13.428;2023-05-10T16:01:54;22.10;50.60
3944;DHT22;1986;52.546;13.428;2023-05-10T16:04:26;22.20;50.60
3944;DHT22;1986;52.546;13.428;2023-05-10T16:06:54;22.10;50.30